sensor_id;sensor_type;location;lat;lon;timestamp;P1;durP1;ratioP1;P2;durP2;ratioP2
5167;SDS011;2603;48.918;8.980;2022-08-11T00:01:43;6.63;;;1.80;;
5167;SDS011;2603;48.918;8.980;2022-08-11T00:04:11;4.40;;;1.83;;
5167;SDS011;2603;48.918;8.980;2022-08-11T00:06:39;2.40;;;1.40;;
5167;SDS011;2603;48.918;8.980;2022-08-11T00:09:07;2.90;;;1.13;;
5167;SDS011;2603;48.918;8.980;2022-08-11T00:11:37;5.07;;;2.00;;
5167;SDS011;2603;48.918;8.980;2022-08-11T00:14:13;2.13;;;1.33;;
5167;SDS011;2603;48.918;8.980;2022-08-11T00:16:41;2.53;;;1.37;;
5167;SDS011;2603;48.918;8.980;2022-08-11T00:19:08;2.07;;;1.10;;
5167;SDS011;2603;48.918;8.980;2022-08-11T00:21:39;5.33;;;1.63;;
5167;SDS011;2603;48.918;8.980;2022-08-11T00:24:06;5.10;;;1.53;;
5167;SDS011;2603;48.918;8.980;2022-08-11T00:26:33;2.90;;;1.50;;
5167;SDS011;2603;48.918;8.980;2022-08-11T00:29:06;8.63;;;2.40;;
5167;SDS011;2603;48.918;8.980;2022-08-11T00:31:35;2.90;;;1.67;;
5167;SDS011;2603;48.918;8.980;2022-08-11T00:34:02;2.93;;;1.43;;
5167;SDS011;2603;48.918;8.980;2022-08-11T00:36:37;2.80;;;1.57;;
5167;SDS011;2603;48.918;8.980;2022-08-11T00:39:05;3.20;;;1.60;;
5167;SDS011;2603;48.918;8.980;2022-08-11T00:41:34;3.13;;;1.50;;
5167;SDS011;2603;48.918;8.980;2022-08-11T00:44:20;3.50;;;2.00;;
5167;SDS011;2603;48.918;8.980;2022-08-11T00:47:08;3.60;;;1.57;;
5167;SDS011;2603;48.918;8.980;2022-08-11T00:49:42;4.50;;;1.43;;
5167;SDS011;2603;48.918;8.980;2022-08-11T00:52:16;5.83;;;2.03;;
5167;SDS011;2603;48.918;8.980;2022-08-11T00:55:02;2.80;;;1.83;;
5167;SDS011;2603;48.918;8.980;2022-08-11T01:00:47;2.60;;;1.70;;
5167;SDS011;2603;48.918;8.980;2022-08-11T01:03:35;2.20;;;1.47;;
5167;SDS011;2603;48.918;8.980;2022-08-11T01:06:27;2.20;;;1.13;;
5167;SDS011;2603;48.918;8.980;2022-08-11T01:09:19;2.30;;;1.47;;
5167;SDS011;2603;48.918;8.980;2022-08-11T01:12:14;2.77;;;1.57;;
5167;SDS011;2603;48.918;8.980;2022-08-11T01:18:26;7.03;;;1.60;;
5167;SDS011;2603;48.918;8.980;2022-08-11T01:27:24;4.70;;;1.93;;
5167;SDS011;2603;48.918;8.980;2022-08-11T01:30:28;3.87;;;1.57;;
5167;SDS011;2603;48.918;8.980;2022-08-11T01:33:38;2.73;;;1.80;;
5167;SDS011;2603;48.918;8.980;2022-08-11T01:45:52;3.13;;;2.10;;
5167;SDS011;2603;48.918;8.980;2022-08-11T01:48:26;2.90;;;1.57;;
5167;SDS011;2603;48.918;8.980;2022-08-11T01:51:07;3.00;;;2.30;;
5167;SDS011;2603;48.918;8.980;2022-08-11T01:53:44;3.83;;;2.17;;
5167;SDS011;2603;48.918;8.980;2022-08-11T01:59:04;3.73;;;1.60;;
5167;SDS011;2603;48.918;8.980;2022-08-11T02:01:37;4.30;;;1.87;;
5167;SDS011;2603;48.918;8.980;2022-08-11T02:04:14;7.53;;;1.80;;
5167;SDS011;2603;48.918;8.980;2022-08-11T02:06:47;3.43;;;2.00;;
5167;SDS011;2603;48.918;8.980;2022-08-11T02:09:44;4.57;;;2.13;;
5167;SDS011;2603;48.918;8.980;2022-08-11T02:12:21;3.83;;;1.93;;
5167;SDS011;2603;48.918;8.980;2022-08-11T02:14:56;2.50;;;1.60;;
5167;SDS011;2603;48.918;8.980;2022-08-11T02:17:36;3.00;;;1.63;;
5167;SDS011;2603;48.918;8.980;2022-08-11T02:20:09;3.97;;;1.97;;
5167;SDS011;2603;48.918;8.980;2022-08-11T02:23:17;2.87;;;1.77;;
5167;SDS011;2603;48.918;8.980;2022-08-11T02:26:13;8.83;;;2.23;;
5167;SDS011;2603;48.918;8.980;2022-08-11T02:28:47;3.97;;;2.50;;
5167;SDS011;2603;48.918;8.980;2022-08-11T02:31:18;3.90;;;1.83;;
5167;SDS011;2603;48.918;8.980;2022-08-11T02:34:11;3.67;;;2.17;;
5167;SDS011;2603;48.918;8.980;2022-08-11T02:36:51;8.30;;;2.23;;
5167;SDS011;2603;48.918;8.980;2022-08-11T02:39:21;4.13;;;2.03;;
5167;SDS011;2603;48.918;8.980;2022-08-11T02:41:51;4.23;;;2.63;;
5167;SDS011;2603;48.918;8.980;2022-08-11T02:44:45;4.20;;;2.20;;
5167;SDS011;2603;48.918;8.980;2022-08-11T02:47:26;4.77;;;1.93;;
5167;SDS011;2603;48.918;8.980;2022-08-11T02:50:03;3.10;;;1.83;;
5167;SDS011;2603;48.918;8.980;2022-08-11T02:52:40;3.90;;;2.00;;
5167;SDS011;2603;48.918;8.980;2022-08-11T02:55:17;2.97;;;1.90;;
5167;SDS011;2603;48.918;8.980;2022-08-11T02:57:50;1.97;;;1.63;;
5167;SDS011;2603;48.918;8.980;2022-08-11T03:00:21;3.50;;;2.00;;
5167;SDS011;2603;48.918;8.980;2022-08-11T03:02:51;6.03;;;2.37;;
5167;SDS011;2603;48.918;8.980;2022-08-11T03:05:26;4.80;;;1.80;;
5167;SDS011;2603;48.918;8.980;2022-08-11T03:08:04;6.33;;;2.57;;
5167;SDS011;2603;48.918;8.980;2022-08-11T03:10:41;3.33;;;2.03;;
5167;SDS011;2603;48.918;8.980;2022-08-11T03:13:33;5.47;;;1.97;;
5167;SDS011;2603;48.918;8.980;2022-08-11T03:16:20;3.83;;;1.80;;
5167;SDS011;2603;48.918;8.980;2022-08-11T03:19:07;4.13;;;2.30;;
5167;SDS011;2603;48.918;8.980;2022-08-11T03:21:44;3.07;;;2.07;;
5167;SDS011;2603;48.918;8.980;2022-08-11T03:24:14;5.20;;;2.03;;
5167;SDS011;2603;48.918;8.980;2022-08-11T03:26:46;5.43;;;2.00;;
5167;SDS011;2603;48.918;8.980;2022-08-11T03:29:22;2.50;;;1.80;;
5167;SDS011;2603;48.918;8.980;2022-08-11T03:31:54;4.53;;;2.37;;
5167;SDS011;2603;48.918;8.980;2022-08-11T03:34:25;2.73;;;2.17;;
5167;SDS011;2603;48.918;8.980;2022-08-11T03:36:58;4.93;;;2.00;;
5167;SDS011;2603;48.918;8.980;2022-08-11T03:40:06;4.10;;;2.30;;
5167;SDS011;2603;48.918;8.980;2022-08-11T03:43:02;4.77;;;2.80;;
5167;SDS011;2603;48.918;8.980;2022-08-11T03:45:36;3.20;;;2.03;;
5167;SDS011;2603;48.918;8.980;2022-08-11T03:48:22;5.30;;;2.70;;
5167;SDS011;2603;48.918;8.980;2022-08-11T03:50:56;4.43;;;2.13;;
5167;SDS011;2603;48.918;8.980;2022-08-11T03:53:46;5.20;;;2.43;;
5167;SDS011;2603;48.918;8.980;2022-08-11T04:06:00;6.23;;;2.10;;
5167;SDS011;2603;48.918;8.980;2022-08-11T04:12:11;4.90;;;2.30;;
5167;SDS011;2603;48.918;8.980;2022-08-11T04:14:57;5.00;;;2.50;;
5167;SDS011;2603;48.918;8.980;2022-08-11T04:18:13;3.07;;;2.27;;
5167;SDS011;2603;48.918;8.980;2022-08-11T04:20:58;4.57;;;2.23;;
5167;SDS011;2603;48.918;8.980;2022-08-11T04:23:55;11.70;;;2.43;;
5167;SDS011;2603;48.918;8.980;2022-08-11T04:29:23;3.10;;;2.00;;
5167;SDS011;2603;48.918;8.980;2022-08-11T04:32:03;4.47;;;2.60;;
5167;SDS011;2603;48.918;8.980;2022-08-11T04:34:50;2.67;;;2.10;;
5167;SDS011;2603;48.918;8.980;2022-08-11T04:37:48;3.37;;;1.90;;
5167;SDS011;2603;48.918;8.980;2022-08-11T04:46:18;4.90;;;2.03;;
5167;SDS011;2603;48.918;8.980;2022-08-11T04:49:00;4.60;;;2.00;;
5167;SDS011;2603;48.918;8.980;2022-08-11T04:55:25;4.13;;;2.27;;
5167;SDS011;2603;48.918;8.980;2022-08-11T04:58:18;4.30;;;2.17;;
5167;SDS011;2603;48.918;8.980;2022-08-11T05:01:07;7.43;;;2.23;;
5167;SDS011;2603;48.918;8.980;2022-08-11T05:07:48;2.47;;;1.47;;
5167;SDS011;2603;48.918;8.980;2022-08-11T05:10:42;3.40;;;1.97;;
5167;SDS011;2603;48.918;8.980;2022-08-11T05:13:21;2.80;;;1.73;;
5167;SDS011;2603;48.918;8.980;2022-08-11T05:16:10;4.60;;;1.80;;
5167;SDS011;2603;48.918;8.980;2022-08-11T05:18:56;4.77;;;1.80;;
5167;SDS011;2603;48.918;8.980;2022-08-11T05:21:41;6.87;;;2.23;;
5167;SDS011;2603;48.918;8.980;2022-08-11T05:24:30;2.67;;;1.80;;
5167;SDS011;2603;48.918;8.980;2022-08-11T05:27:18;5.03;;;2.27;;
5167;SDS011;2603;48.918;8.980;2022-08-11T05:30:05;11.27;;;1.90;;
5167;SDS011;2603;48.918;8.980;2022-08-11T05:32:53;4.43;;;1.83;;
5167;SDS011;2603;48.918;8.980;2022-08-11T05:35:41;4.50;;;1.90;;
5167;SDS011;2603;48.918;8.980;2022-08-11T05:38:09;15.20;;;2.40;;
5167;SDS011;2603;48.918;8.980;2022-08-11T05:40:56;5.80;;;2.47;;
5167;SDS011;2603;48.918;8.980;2022-08-11T05:43:43;4.70;;;2.57;;
5167;SDS011;2603;48.918;8.980;2022-08-11T05:46:28;3.40;;;1.97;;
5167;SDS011;2603;48.918;8.980;2022-08-11T05:49:13;3.80;;;1.80;;
5167;SDS011;2603;48.918;8.980;2022-08-11T05:51:58;7.40;;;2.80;;
5167;SDS011;2603;48.918;8.980;2022-08-11T05:54:43;6.53;;;2.03;;
5167;SDS011;2603;48.918;8.980;2022-08-11T05:57:28;4.60;;;2.27;;
5167;SDS011;2603;48.918;8.980;2022-08-11T06:00:03;5.73;;;2.80;;
5167;SDS011;2603;48.918;8.980;2022-08-11T06:02:38;5.47;;;2.90;;
5167;SDS011;2603;48.918;8.980;2022-08-11T06:05:06;7.53;;;3.43;;
5167;SDS011;2603;48.918;8.980;2022-08-11T06:07:33;4.03;;;2.00;;
5167;SDS011;2603;48.918;8.980;2022-08-11T06:09:59;4.63;;;2.40;;
5167;SDS011;2603;48.918;8.980;2022-08-11T06:12:27;5.03;;;2.30;;
5167;SDS011;2603;48.918;8.980;2022-08-11T06:14:57;5.37;;;2.47;;
5167;SDS011;2603;48.918;8.980;2022-08-11T06:17:29;13.30;;;2.50;;
5167;SDS011;2603;48.918;8.980;2022-08-11T06:19:58;3.33;;;1.90;;
5167;SDS011;2603;48.918;8.980;2022-08-11T06:22:25;6.07;;;2.33;;
5167;SDS011;2603;48.918;8.980;2022-08-11T06:24:54;4.70;;;2.40;;
5167;SDS011;2603;48.918;8.980;2022-08-11T06:27:23;5.40;;;2.50;;
5167;SDS011;2603;48.918;8.980;2022-08-11T06:29:52;4.80;;;2.00;;
5167;SDS011;2603;48.918;8.980;2022-08-11T06:32:20;8.33;;;1.77;;
5167;SDS011;2603;48.918;8.980;2022-08-11T06:34:51;5.83;;;2.33;;
5167;SDS011;2603;48.918;8.980;2022-08-11T06:37:26;6.07;;;2.07;;
5167;SDS011;2603;48.918;8.980;2022-08-11T06:40:00;12.03;;;2.47;;
5167;SDS011;2603;48.918;8.980;2022-08-11T06:42:40;11.13;;;3.90;;
5167;SDS011;2603;48.918;8.980;2022-08-11T06:45:14;8.83;;;2.10;;
5167;SDS011;2603;48.918;8.980;2022-08-11T06:47:45;9.33;;;2.33;;
5167;SDS011;2603;48.918;8.980;2022-08-11T06:50:17;7.63;;;2.17;;
5167;SDS011;2603;48.918;8.980;2022-08-11T06:53:03;10.23;;;2.10;;
5167;SDS011;2603;48.918;8.980;2022-08-11T06:55:31;6.93;;;2.50;;
5167;SDS011;2603;48.918;8.980;2022-08-11T06:58:19;6.03;;;1.90;;
5167;SDS011;2603;48.918;8.980;2022-08-11T07:01:06;2.90;;;1.90;;
5167;SDS011;2603;48.918;8.980;2022-08-11T07:03:38;4.60;;;2.23;;
5167;SDS011;2603;48.918;8.980;2022-08-11T07:06:14;2.90;;;1.93;;
5167;SDS011;2603;48.918;8.980;2022-08-11T07:12:03;9.03;;;2.27;;
5167;SDS011;2603;48.918;8.980;2022-08-11T07:14:53;5.30;;;1.97;;
5167;SDS011;2603;48.918;8.980;2022-08-11T07:17:40;7.20;;;2.50;;
5167;SDS011;2603;48.918;8.980;2022-08-11T07:20:13;9.67;;;1.73;;
5167;SDS011;2603;48.918;8.980;2022-08-11T07:23:00;6.33;;;1.80;;
5167;SDS011;2603;48.918;8.980;2022-08-11T07:25:46;4.20;;;2.03;;
5167;SDS011;2603;48.918;8.980;2022-08-11T07:28:33;3.50;;;2.07;;
5167;SDS011;2603;48.918;8.980;2022-08-11T07:31:20;4.00;;;1.70;;
5167;SDS011;2603;48.918;8.980;2022-08-11T07:33:52;4.10;;;2.20;;
5167;SDS011;2603;48.918;8.980;2022-08-11T07:36:22;11.23;;;2.37;;
5167;SDS011;2603;48.918;8.980;2022-08-11T07:38:52;3.33;;;2.13;;
5167;SDS011;2603;48.918;8.980;2022-08-11T07:41:21;3.40;;;1.70;;
5167;SDS011;2603;48.918;8.980;2022-08-11T07:43:49;11.37;;;2.10;;
5167;SDS011;2603;48.918;8.980;2022-08-11T07:46:18;26.37;;;3.50;;
5167;SDS011;2603;48.918;8.980;2022-08-11T07:49:03;11.60;;;2.50;;
5167;SDS011;2603;48.918;8.980;2022-08-11T07:51:50;3.80;;;1.80;;
5167;SDS011;2603;48.918;8.980;2022-08-11T07:54:36;3.63;;;2.00;;
5167;SDS011;2603;48.918;8.980;2022-08-11T07:57:03;3.97;;;2.17;;
5167;SDS011;2603;48.918;8.980;2022-08-11T07:59:48;5.50;;;1.90;;
5167;SDS011;2603;48.918;8.980;2022-08-11T08:02:38;5.13;;;2.40;;
5167;SDS011;2603;48.918;8.980;2022-08-11T08:05:23;3.00;;;1.97;;
5167;SDS011;2603;48.918;8.980;2022-08-11T08:08:07;8.23;;;2.20;;
5167;SDS011;2603;48.918;8.980;2022-08-11T08:10:54;11.37;;;2.63;;
5167;SDS011;2603;48.918;8.980;2022-08-11T08:13:39;6.47;;;2.23;;
5167;SDS011;2603;48.918;8.980;2022-08-11T08:16:24;4.90;;;2.10;;
5167;SDS011;2603;48.918;8.980;2022-08-11T08:19:10;5.00;;;2.10;;
5167;SDS011;2603;48.918;8.980;2022-08-11T08:21:37;7.57;;;2.27;;
5167;SDS011;2603;48.918;8.980;2022-08-11T08:24:04;5.23;;;1.90;;
5167;SDS011;2603;48.918;8.980;2022-08-11T08:26:33;3.37;;;2.13;;
5167;SDS011;2603;48.918;8.980;2022-08-11T08:29:17;5.43;;;1.90;;
5167;SDS011;2603;48.918;8.980;2022-08-11T08:32:03;6.40;;;2.20;;
5167;SDS011;2603;48.918;8.980;2022-08-11T08:34:30;4.30;;;2.47;;
5167;SDS011;2603;48.918;8.980;2022-08-11T08:36:56;4.20;;;2.03;;
5167;SDS011;2603;48.918;8.980;2022-08-11T08:39:23;12.40;;;3.03;;
5167;SDS011;2603;48.918;8.980;2022-08-11T08:41:53;5.20;;;1.80;;
5167;SDS011;2603;48.918;8.980;2022-08-11T08:44:20;7.63;;;1.90;;
5167;SDS011;2603;48.918;8.980;2022-08-11T08:46:49;5.10;;;1.70;;
5167;SDS011;2603;48.918;8.980;2022-08-11T08:49:21;3.60;;;1.60;;
5167;SDS011;2603;48.918;8.980;2022-08-11T08:51:51;4.37;;;2.20;;
5167;SDS011;2603;48.918;8.980;2022-08-11T08:54:20;2.43;;;1.50;;
5167;SDS011;2603;48.918;8.980;2022-08-11T08:56:50;4.57;;;1.97;;
5167;SDS011;2603;48.918;8.980;2022-08-11T08:59:20;6.30;;;2.67;;
5167;SDS011;2603;48.918;8.980;2022-08-11T09:01:49;8.10;;;1.93;;
5167;SDS011;2603;48.918;8.980;2022-08-11T09:04:17;13.03;;;1.93;;
5167;SDS011;2603;48.918;8.980;2022-08-11T09:06:44;3.53;;;1.70;;
5167;SDS011;2603;48.918;8.980;2022-08-11T09:09:11;5.90;;;1.50;;
5167;SDS011;2603;48.918;8.980;2022-08-11T09:11:39;4.10;;;1.53;;
5167;SDS011;2603;48.918;8.980;2022-08-11T09:14:19;6.20;;;1.87;;
5167;SDS011;2603;48.918;8.980;2022-08-11T09:16:47;2.03;;;1.40;;
5167;SDS011;2603;48.918;8.980;2022-08-11T09:19:14;1.97;;;1.73;;
5167;SDS011;2603;48.918;8.980;2022-08-11T09:21:42;2.60;;;1.37;;
5167;SDS011;2603;48.918;8.980;2022-08-11T09:24:09;4.43;;;1.80;;
5167;SDS011;2603;48.918;8.980;2022-08-11T09:26:56;2.90;;;1.33;;
5167;SDS011;2603;48.918;8.980;2022-08-11T09:29:28;2.93;;;1.93;;
5167;SDS011;2603;48.918;8.980;2022-08-11T09:31:56;6.37;;;1.90;;
5167;SDS011;2603;48.918;8.980;2022-08-11T09:34:23;3.70;;;1.70;;
5167;SDS011;2603;48.918;8.980;2022-08-11T09:36:51;5.17;;;1.73;;
5167;SDS011;2603;48.918;8.980;2022-08-11T09:39:35;2.47;;;1.40;;
5167;SDS011;2603;48.918;8.980;2022-08-11T09:42:21;4.90;;;1.67;;
5167;SDS011;2603;48.918;8.980;2022-08-11T09:45:10;7.40;;;1.47;;
5167;SDS011;2603;48.918;8.980;2022-08-11T09:47:36;4.30;;;1.73;;
5167;SDS011;2603;48.918;8.980;2022-08-11T09:50:04;2.80;;;1.50;;
5167;SDS011;2603;48.918;8.980;2022-08-11T09:52:33;3.80;;;1.70;;
5167;SDS011;2603;48.918;8.980;2022-08-11T09:55:01;7.33;;;1.60;;
5167;SDS011;2603;48.918;8.980;2022-08-11T09:57:30;8.23;;;1.70;;
5167;SDS011;2603;48.918;8.980;2022-08-11T10:00:16;3.50;;;2.40;;
5167;SDS011;2603;48.918;8.980;2022-08-11T10:02:43;2.90;;;1.63;;
5167;SDS011;2603;48.918;8.980;2022-08-11T10:05:12;5.17;;;1.93;;
5167;SDS011;2603;48.918;8.980;2022-08-11T10:07:57;3.30;;;1.97;;
5167;SDS011;2603;48.918;8.980;2022-08-11T10:10:25;2.23;;;1.20;;
5167;SDS011;2603;48.918;8.980;2022-08-11T10:12:55;2.20;;;1.40;;
5167;SDS011;2603;48.918;8.980;2022-08-11T10:15:26;3.97;;;1.73;;
5167;SDS011;2603;48.918;8.980;2022-08-11T10:17:59;3.70;;;1.60;;
5167;SDS011;2603;48.918;8.980;2022-08-11T10:20:47;6.57;;;1.40;;
5167;SDS011;2603;48.918;8.980;2022-08-11T10:23:15;2.17;;;1.20;;
5167;SDS011;2603;48.918;8.980;2022-08-11T10:26:00;2.83;;;1.17;;
5167;SDS011;2603;48.918;8.980;2022-08-11T10:28:45;3.07;;;1.50;;
5167;SDS011;2603;48.918;8.980;2022-08-11T10:31:13;3.17;;;1.40;;
5167;SDS011;2603;48.918;8.980;2022-08-11T10:34:08;2.63;;;1.40;;
5167;SDS011;2603;48.918;8.980;2022-08-11T10:36:37;4.27;;;1.63;;
5167;SDS011;2603;48.918;8.980;2022-08-11T10:39:09;4.17;;;1.53;;
5167;SDS011;2603;48.918;8.980;2022-08-11T10:41:41;5.80;;;1.70;;
5167;SDS011;2603;48.918;8.980;2022-08-11T10:44:26;3.30;;;1.47;;
5167;SDS011;2603;48.918;8.980;2022-08-11T10:46:55;5.20;;;1.90;;
5167;SDS011;2603;48.918;8.980;2022-08-11T10:49:39;1.93;;;1.40;;
5167;SDS011;2603;48.918;8.980;2022-08-11T10:52:06;3.20;;;1.50;;
5167;SDS011;2603;48.918;8.980;2022-08-11T10:54:50;4.20;;;1.60;;
5167;SDS011;2603;48.918;8.980;2022-08-11T10:57:35;2.17;;;1.20;;
5167;SDS011;2603;48.918;8.980;2022-08-11T11:00:19;5.70;;;1.70;;
5167;SDS011;2603;48.918;8.980;2022-08-11T11:02:49;4.97;;;1.67;;
5167;SDS011;2603;48.918;8.980;2022-08-11T11:05:19;2.77;;;1.97;;
5167;SDS011;2603;48.918;8.980;2022-08-11T11:07:51;3.40;;;1.60;;
5167;SDS011;2603;48.918;8.980;2022-08-11T11:10:20;1.87;;;1.30;;
5167;SDS011;2603;48.918;8.980;2022-08-11T11:12:50;3.33;;;1.80;;
5167;SDS011;2603;48.918;8.980;2022-08-11T11:15:51;4.80;;;1.50;;
5167;SDS011;2603;48.918;8.980;2022-08-11T11:18:37;2.40;;;1.50;;
5167;SDS011;2603;48.918;8.980;2022-08-11T11:21:04;10.83;;;1.50;;
5167;SDS011;2603;48.918;8.980;2022-08-11T11:23:33;6.83;;;2.80;;
5167;SDS011;2603;48.918;8.980;2022-08-11T11:26:07;2.33;;;1.47;;
5167;SDS011;2603;48.918;8.980;2022-08-11T11:28:46;2.07;;;1.43;;
5167;SDS011;2603;48.918;8.980;2022-08-11T11:31:20;3.20;;;1.93;;
5167;SDS011;2603;48.918;8.980;2022-08-11T11:34:00;5.83;;;1.80;;
5167;SDS011;2603;48.918;8.980;2022-08-11T11:36:40;2.00;;;1.40;;
5167;SDS011;2603;48.918;8.980;2022-08-11T11:39:11;2.13;;;1.53;;
5167;SDS011;2603;48.918;8.980;2022-08-11T11:41:38;2.37;;;1.67;;
5167;SDS011;2603;48.918;8.980;2022-08-11T11:44:05;1.80;;;1.20;;
5167;SDS011;2603;48.918;8.980;2022-08-11T11:46:32;2.60;;;1.40;;
5167;SDS011;2603;48.918;8.980;2022-08-11T11:49:00;2.80;;;1.63;;
5167;SDS011;2603;48.918;8.980;2022-08-11T11:51:32;2.20;;;1.37;;
5167;SDS011;2603;48.918;8.980;2022-08-11T11:53:59;4.90;;;1.10;;
5167;SDS011;2603;48.918;8.980;2022-08-11T11:56:27;1.90;;;1.40;;
5167;SDS011;2603;48.918;8.980;2022-08-11T11:58:54;5.47;;;1.50;;
5167;SDS011;2603;48.918;8.980;2022-08-11T12:01:38;4.50;;;1.50;;
5167;SDS011;2603;48.918;8.980;2022-08-11T12:04:09;4.27;;;1.67;;
5167;SDS011;2603;48.918;8.980;2022-08-11T12:06:37;1.80;;;1.00;;
5167;SDS011;2603;48.918;8.980;2022-08-11T12:09:03;3.23;;;1.30;;
5167;SDS011;2603;48.918;8.980;2022-08-11T12:11:30;3.47;;;1.80;;
5167;SDS011;2603;48.918;8.980;2022-08-11T12:14:16;7.83;;;1.40;;
5167;SDS011;2603;48.918;8.980;2022-08-11T12:16:45;5.33;;;1.63;;
5167;SDS011;2603;48.918;8.980;2022-08-11T12:19:14;2.43;;;1.30;;
5167;SDS011;2603;48.918;8.980;2022-08-11T12:21:42;3.60;;;1.23;;
5167;SDS011;2603;48.918;8.980;2022-08-11T12:24:23;2.50;;;1.23;;
5167;SDS011;2603;48.918;8.980;2022-08-11T12:27:07;9.93;;;1.90;;
5167;SDS011;2603;48.918;8.980;2022-08-11T12:29:46;2.43;;;1.43;;
5167;SDS011;2603;48.918;8.980;2022-08-11T12:32:14;4.40;;;1.20;;
5167;SDS011;2603;48.918;8.980;2022-08-11T12:34:42;10.00;;;1.57;;
5167;SDS011;2603;48.918;8.980;2022-08-11T12:37:09;7.13;;;1.40;;
5167;SDS011;2603;48.918;8.980;2022-08-11T12:39:38;2.47;;;1.27;;
5167;SDS011;2603;48.918;8.980;2022-08-11T12:42:25;1.90;;;1.00;;
5167;SDS011;2603;48.918;8.980;2022-08-11T12:45:11;3.93;;;1.50;;
5167;SDS011;2603;48.918;8.980;2022-08-11T12:47:57;1.70;;;0.97;;
5167;SDS011;2603;48.918;8.980;2022-08-11T12:50:45;2.97;;;1.50;;
5167;SDS011;2603;48.918;8.980;2022-08-11T12:53:32;2.87;;;1.40;;
5167;SDS011;2603;48.918;8.980;2022-08-11T12:56:02;5.83;;;1.27;;
5167;SDS011;2603;48.918;8.980;2022-08-11T12:58:47;2.80;;;1.43;;
5167;SDS011;2603;48.918;8.980;2022-08-11T13:01:15;4.20;;;1.40;;
5167;SDS011;2603;48.918;8.980;2022-08-11T13:04:00;2.23;;;1.10;;
5167;SDS011;2603;48.918;8.980;2022-08-11T13:06:45;5.20;;;1.40;;
5167;SDS011;2603;48.918;8.980;2022-08-11T13:09:12;4.63;;;1.37;;
5167;SDS011;2603;48.918;8.980;2022-08-11T13:11:39;8.40;;;1.30;;
5167;SDS011;2603;48.918;8.980;2022-08-11T13:14:23;3.43;;;1.40;;
5167;SDS011;2603;48.918;8.980;2022-08-11T13:16:50;2.17;;;1.20;;
5167;SDS011;2603;48.918;8.980;2022-08-11T13:19:35;6.83;;;1.07;;
5167;SDS011;2603;48.918;8.980;2022-08-11T13:22:03;2.97;;;1.33;;
5167;SDS011;2603;48.918;8.980;2022-08-11T13:24:31;2.27;;;1.33;;
5167;SDS011;2603;48.918;8.980;2022-08-11T13:26:59;7.50;;;1.70;;
5167;SDS011;2603;48.918;8.980;2022-08-11T13:29:26;1.80;;;1.23;;
5167;SDS011;2603;48.918;8.980;2022-08-11T13:31:54;6.47;;;1.30;;
5167;SDS011;2603;48.918;8.980;2022-08-11T13:34:24;1.40;;;1.00;;
5167;SDS011;2603;48.918;8.980;2022-08-11T13:36:52;3.50;;;1.20;;
5167;SDS011;2603;48.918;8.980;2022-08-11T13:39:21;9.33;;;1.50;;
5167;SDS011;2603;48.918;8.980;2022-08-11T13:41:49;3.67;;;1.10;;
5167;SDS011;2603;48.918;8.980;2022-08-11T13:44:16;2.70;;;1.37;;
5167;SDS011;2603;48.918;8.980;2022-08-11T13:46:43;3.70;;;1.37;;
5167;SDS011;2603;48.918;8.980;2022-08-11T13:49:10;8.73;;;1.67;;
5167;SDS011;2603;48.918;8.980;2022-08-11T13:51:40;3.60;;;1.43;;
5167;SDS011;2603;48.918;8.980;2022-08-11T13:54:07;2.60;;;1.17;;
5167;SDS011;2603;48.918;8.980;2022-08-11T13:56:37;2.00;;;1.13;;
5167;SDS011;2603;48.918;8.980;2022-08-11T13:59:04;6.50;;;1.43;;
5167;SDS011;2603;48.918;8.980;2022-08-11T14:01:33;3.60;;;1.40;;
5167;SDS011;2603;48.918;8.980;2022-08-11T14:04:02;2.80;;;1.70;;
5167;SDS011;2603;48.918;8.980;2022-08-11T14:06:44;3.00;;;1.03;;
5167;SDS011;2603;48.918;8.980;2022-08-11T14:09:14;4.47;;;1.30;;
5167;SDS011;2603;48.918;8.980;2022-08-11T14:11:43;1.70;;;1.23;;
5167;SDS011;2603;48.918;8.980;2022-08-11T14:14:30;3.00;;;1.20;;
5167;SDS011;2603;48.918;8.980;2022-08-11T14:17:00;3.83;;;1.30;;
5167;SDS011;2603;48.918;8.980;2022-08-11T14:19:35;2.13;;;1.03;;
5167;SDS011;2603;48.918;8.980;2022-08-11T14:22:03;1.87;;;1.40;;
5167;SDS011;2603;48.918;8.980;2022-08-11T14:24:33;2.40;;;1.50;;
5167;SDS011;2603;48.918;8.980;2022-08-11T14:27:02;2.90;;;1.30;;
5167;SDS011;2603;48.918;8.980;2022-08-11T14:29:29;1.50;;;1.00;;
5167;SDS011;2603;48.918;8.980;2022-08-11T14:31:59;3.40;;;1.70;;
5167;SDS011;2603;48.918;8.980;2022-08-11T14:34:27;3.33;;;1.20;;
5167;SDS011;2603;48.918;8.980;2022-08-11T14:36:55;2.60;;;1.10;;
5167;SDS011;2603;48.918;8.980;2022-08-11T14:39:24;1.77;;;1.10;;
5167;SDS011;2603;48.918;8.980;2022-08-11T14:41:52;3.00;;;1.20;;
5167;SDS011;2603;48.918;8.980;2022-08-11T14:44:40;2.53;;;1.00;;
5167;SDS011;2603;48.918;8.980;2022-08-11T14:47:41;4.50;;;1.27;;
5167;SDS011;2603;48.918;8.980;2022-08-11T14:50:10;4.20;;;1.57;;
5167;SDS011;2603;48.918;8.980;2022-08-11T14:52:43;2.43;;;1.20;;
5167;SDS011;2603;48.918;8.980;2022-08-11T14:55:13;2.13;;;1.20;;
5167;SDS011;2603;48.918;8.980;2022-08-11T14:57:58;2.17;;;1.20;;
5167;SDS011;2603;48.918;8.980;2022-08-11T15:00:27;10.90;;;1.87;;
5167;SDS011;2603;48.918;8.980;2022-08-11T15:02:54;2.37;;;1.10;;
5167;SDS011;2603;48.918;8.980;2022-08-11T15:05:34;6.53;;;1.40;;
5167;SDS011;2603;48.918;8.980;2022-08-11T15:08:02;3.10;;;1.10;;
5167;SDS011;2603;48.918;8.980;2022-08-11T15:10:29;1.90;;;1.20;;
5167;SDS011;2603;48.918;8.980;2022-08-11T15:12:55;2.40;;;1.43;;
5167;SDS011;2603;48.918;8.980;2022-08-11T15:15:23;3.23;;;1.03;;
5167;SDS011;2603;48.918;8.980;2022-08-11T15:18:10;1.70;;;1.00;;
5167;SDS011;2603;48.918;8.980;2022-08-11T15:20:40;2.33;;;1.20;;
5167;SDS011;2603;48.918;8.980;2022-08-11T15:23:24;2.40;;;1.10;;
5167;SDS011;2603;48.918;8.980;2022-08-11T15:26:12;2.10;;;1.13;;
5167;SDS011;2603;48.918;8.980;2022-08-11T15:28:43;3.50;;;1.30;;
5167;SDS011;2603;48.918;8.980;2022-08-11T15:31:29;2.80;;;1.33;;
5167;SDS011;2603;48.918;8.980;2022-08-11T15:34:16;2.37;;;1.10;;
5167;SDS011;2603;48.918;8.980;2022-08-11T15:37:05;3.77;;;0.90;;
5167;SDS011;2603;48.918;8.980;2022-08-11T15:39:52;3.83;;;1.33;;
5167;SDS011;2603;48.918;8.980;2022-08-11T15:42:44;1.90;;;1.40;;
5167;SDS011;2603;48.918;8.980;2022-08-11T15:45:30;1.63;;;0.93;;
5167;SDS011;2603;48.918;8.980;2022-08-11T15:48:26;7.43;;;1.23;;
5167;SDS011;2603;48.918;8.980;2022-08-11T15:51:04;3.10;;;1.30;;
5167;SDS011;2603;48.918;8.980;2022-08-11T15:53:37;2.23;;;0.93;;
5167;SDS011;2603;48.918;8.980;2022-08-11T15:56:06;2.20;;;1.13;;
5167;SDS011;2603;48.918;8.980;2022-08-11T15:58:35;4.23;;;1.60;;
5167;SDS011;2603;48.918;8.980;2022-08-11T16:01:23;7.77;;;1.00;;
5167;SDS011;2603;48.918;8.980;2022-08-11T16:04:08;1.80;;;1.10;;
5167;SDS011;2603;48.918;8.980;2022-08-11T16:06:43;5.00;;;1.37;;
5167;SDS011;2603;48.918;8.980;2022-08-11T16:09:11;4.63;;;1.10;;
5167;SDS011;2603;48.918;8.980;2022-08-11T16:11:39;2.87;;;1.17;;
5167;SDS011;2603;48.918;8.980;2022-08-11T16:14:07;12.23;;;1.40;;
5167;SDS011;2603;48.918;8.980;2022-08-11T16:16:54;2.37;;;1.13;;
5167;SDS011;2603;48.918;8.980;2022-08-11T16:19:22;5.93;;;1.37;;
5167;SDS011;2603;48.918;8.980;2022-08-11T16:21:52;3.10;;;1.20;;
5167;SDS011;2603;48.918;8.980;2022-08-11T16:24:19;2.00;;;1.17;;
5167;SDS011;2603;48.918;8.980;2022-08-11T16:26:46;2.63;;;1.30;;
5167;SDS011;2603;48.918;8.980;2022-08-11T16:29:14;1.80;;;1.10;;
5167;SDS011;2603;48.918;8.980;2022-08-11T16:31:41;4.80;;;1.20;;
5167;SDS011;2603;48.918;8.980;2022-08-11T16:34:28;1.60;;;1.10;;
5167;SDS011;2603;48.918;8.980;2022-08-11T16:37:17;2.33;;;1.30;;
5167;SDS011;2603;48.918;8.980;2022-08-11T16:40:02;3.13;;;1.70;;
5167;SDS011;2603;48.918;8.980;2022-08-11T16:42:29;1.70;;;1.10;;
5167;SDS011;2603;48.918;8.980;2022-08-11T16:45:13;2.80;;;1.20;;
5167;SDS011;2603;48.918;8.980;2022-08-11T16:47:57;2.20;;;1.10;;
5167;SDS011;2603;48.918;8.980;2022-08-11T16:50:25;1.83;;;1.10;;
5167;SDS011;2603;48.918;8.980;2022-08-11T16:52:55;3.57;;;1.30;;
5167;SDS011;2603;48.918;8.980;2022-08-11T16:55:21;3.93;;;1.30;;
5167;SDS011;2603;48.918;8.980;2022-08-11T16:57:48;1.83;;;1.20;;
5167;SDS011;2603;48.918;8.980;2022-08-11T17:00:32;1.67;;;1.10;;
5167;SDS011;2603;48.918;8.980;2022-08-11T17:03:00;3.42;;;1.60;;
5167;SDS011;2603;48.918;8.980;2022-08-11T17:05:49;3.40;;;1.37;;
5167;SDS011;2603;48.918;8.980;2022-08-11T17:08:36;2.37;;;1.40;;
5167;SDS011;2603;48.918;8.980;2022-08-11T17:11:22;2.97;;;1.30;;